New Hope, Mississippi
Current Conditions -  °F | °C
As of 2:50 PM on Thursday 23 Oct 2014 (Local Time) from KGTR Reporting Station
Broken Clouds Broken Clouds  
Wind Chill: 19°   Ceiling: 10000
Heat Index: 19°   Visibility: 10mi
Dew Point:   Wind: 7mph
Humidity: 43%   Direction: 350°N
Pressure: 30.09"   Gusts: NA
Location:  33.455°N, 88.5512°W
Report Text: KGTR 231950Z 35006KT 10SM BKN100 19/06 A3009
Loading
Personal Weather Stations






























Interactive Weather Map
Tropical Storm Tracking
New forecast layout! Learn more

10-Day Weather Forecast

Advertisements
Track Severe Weather on mobile